sensor_id;sensor_type;location;lat;lon;timestamp;P1;durP1;ratioP1;P2;durP2;ratioP2
6979;SDS011;3530;52.832;10.680;2022-08-27T00:01:04;7.68;;;6.18;;
6979;SDS011;3530;52.832;10.680;2022-08-27T00:03:30;10.77;;;6.65;;
6979;SDS011;3530;52.832;10.680;2022-08-27T00:05:55;8.20;;;6.50;;
6979;SDS011;3530;52.832;10.680;2022-08-27T00:08:20;8.50;;;7.57;;
6979;SDS011;3530;52.832;10.680;2022-08-27T00:10:46;10.23;;;6.47;;
6979;SDS011;3530;52.832;10.680;2022-08-27T00:13:11;8.80;;;6.70;;
6979;SDS011;3530;52.832;10.680;2022-08-27T00:15:37;12.20;;;7.55;;
6979;SDS011;3530;52.832;10.680;2022-08-27T00:18:03;11.82;;;8.82;;
6979;SDS011;3530;52.832;10.680;2022-08-27T00:20:28;12.55;;;8.32;;
6979;SDS011;3530;52.832;10.680;2022-08-27T00:22:54;11.35;;;7.78;;
6979;SDS011;3530;52.832;10.680;2022-08-27T00:25:20;11.60;;;7.95;;
6979;SDS011;3530;52.832;10.680;2022-08-27T00:27:47;9.77;;;7.25;;
6979;SDS011;3530;52.832;10.680;2022-08-27T00:30:14;13.38;;;10.20;;
6979;SDS011;3530;52.832;10.680;2022-08-27T00:32:40;15.38;;;11.18;;
6979;SDS011;3530;52.832;10.680;2022-08-27T00:35:06;17.50;;;11.68;;
6979;SDS011;3530;52.832;10.680;2022-08-27T00:37:33;17.65;;;12.13;;
6979;SDS011;3530;52.832;10.680;2022-08-27T00:39:58;14.77;;;9.68;;
6979;SDS011;3530;52.832;10.680;2022-08-27T00:42:24;13.98;;;10.50;;
6979;SDS011;3530;52.832;10.680;2022-08-27T00:44:50;16.42;;;11.20;;
6979;SDS011;3530;52.832;10.680;2022-08-27T00:47:17;16.30;;;11.65;;
6979;SDS011;3530;52.832;10.680;2022-08-27T00:49:54;18.55;;;11.63;;
6979;SDS011;3530;52.832;10.680;2022-08-27T00:55:19;18.52;;;13.18;;
6979;SDS011;3530;52.832;10.680;2022-08-27T00:57:51;17.65;;;13.88;;
6979;SDS011;3530;52.832;10.680;2022-08-27T01:00:30;17.17;;;12.98;;
6979;SDS011;3530;52.832;10.680;2022-08-27T01:02:55;18.40;;;12.48;;
6979;SDS011;3530;52.832;10.680;2022-08-27T01:05:21;16.95;;;10.88;;
6979;SDS011;3530;52.832;10.680;2022-08-27T01:07:50;17.02;;;12.70;;
6979;SDS011;3530;52.832;10.680;2022-08-27T01:10:19;15.13;;;10.98;;
6979;SDS011;3530;52.832;10.680;2022-08-27T01:12:46;17.10;;;12.68;;
6979;SDS011;3530;52.832;10.680;2022-08-27T01:15:12;16.35;;;10.57;;
6979;SDS011;3530;52.832;10.680;2022-08-27T01:17:39;21.08;;;12.32;;
6979;SDS011;3530;52.832;10.680;2022-08-27T01:20:06;16.55;;;13.20;;
6979;SDS011;3530;52.832;10.680;2022-08-27T01:25:22;24.65;;;14.23;;
6979;SDS011;3530;52.832;10.680;2022-08-27T01:27:48;17.77;;;13.20;;
6979;SDS011;3530;52.832;10.680;2022-08-27T01:30:15;19.30;;;13.35;;
6979;SDS011;3530;52.832;10.680;2022-08-27T01:32:42;22.58;;;13.68;;
6979;SDS011;3530;52.832;10.680;2022-08-27T01:35:08;20.50;;;13.57;;
6979;SDS011;3530;52.832;10.680;2022-08-27T01:37:36;20.10;;;13.82;;
6979;SDS011;3530;52.832;10.680;2022-08-27T01:40:02;19.75;;;12.52;;
6979;SDS011;3530;52.832;10.680;2022-08-27T01:42:30;19.30;;;12.65;;
6979;SDS011;3530;52.832;10.680;2022-08-27T01:45:00;17.23;;;11.18;;
6979;SDS011;3530;52.832;10.680;2022-08-27T01:47:35;20.83;;;12.93;;
6979;SDS011;3530;52.832;10.680;2022-08-27T01:50:07;17.65;;;12.30;;
6979;SDS011;3530;52.832;10.680;2022-08-27T01:52:34;21.40;;;14.40;;
6979;SDS011;3530;52.832;10.680;2022-08-27T01:55:00;18.02;;;12.68;;
6979;SDS011;3530;52.832;10.680;2022-08-27T01:57:25;16.40;;;12.25;;
6979;SDS011;3530;52.832;10.680;2022-08-27T01:59:51;23.35;;;12.60;;
6979;SDS011;3530;52.832;10.680;2022-08-27T02:02:18;20.95;;;13.77;;
6979;SDS011;3530;52.832;10.680;2022-08-27T02:04:43;22.45;;;14.68;;
6979;SDS011;3530;52.832;10.680;2022-08-27T02:07:09;18.83;;;14.10;;
6979;SDS011;3530;52.832;10.680;2022-08-27T02:09:35;19.30;;;11.85;;
6979;SDS011;3530;52.832;10.680;2022-08-27T02:12:03;21.40;;;14.15;;
6979;SDS011;3530;52.832;10.680;2022-08-27T02:14:29;24.08;;;14.07;;
6979;SDS011;3530;52.832;10.680;2022-08-27T02:16:54;24.40;;;15.05;;
6979;SDS011;3530;52.832;10.680;2022-08-27T02:19:20;21.90;;;14.63;;
6979;SDS011;3530;52.832;10.680;2022-08-27T02:21:45;21.77;;;11.80;;
6979;SDS011;3530;52.832;10.680;2022-08-27T02:24:11;22.13;;;14.15;;
6979;SDS011;3530;52.832;10.680;2022-08-27T02:26:36;16.92;;;12.98;;
6979;SDS011;3530;52.832;10.680;2022-08-27T02:29:02;15.98;;;12.20;;
6979;SDS011;3530;52.832;10.680;2022-08-27T02:31:27;20.17;;;13.00;;
6979;SDS011;3530;52.832;10.680;2022-08-27T02:33:53;22.40;;;12.18;;
6979;SDS011;3530;52.832;10.680;2022-08-27T02:36:18;27.67;;;14.90;;
6979;SDS011;3530;52.832;10.680;2022-08-27T02:38:44;15.52;;;10.57;;
6979;SDS011;3530;52.832;10.680;2022-08-27T02:41:09;22.27;;;13.38;;
6979;SDS011;3530;52.832;10.680;2022-08-27T02:43:35;25.63;;;12.68;;
6979;SDS011;3530;52.832;10.680;2022-08-27T02:46:00;24.00;;;14.02;;
6979;SDS011;3530;52.832;10.680;2022-08-27T02:48:26;20.15;;;11.73;;
6979;SDS011;3530;52.832;10.680;2022-08-27T02:50:51;19.95;;;14.35;;
6979;SDS011;3530;52.832;10.680;2022-08-27T02:53:17;20.45;;;11.70;;
6979;SDS011;3530;52.832;10.680;2022-08-27T02:55:43;21.20;;;12.68;;
6979;SDS011;3530;52.832;10.680;2022-08-27T02:58:08;23.60;;;13.18;;
6979;SDS011;3530;52.832;10.680;2022-08-27T03:00:34;30.52;;;14.77;;
6979;SDS011;3530;52.832;10.680;2022-08-27T03:02:59;22.92;;;11.30;;
6979;SDS011;3530;52.832;10.680;2022-08-27T03:05:26;17.63;;;12.40;;
6979;SDS011;3530;52.832;10.680;2022-08-27T03:07:51;22.25;;;12.80;;
6979;SDS011;3530;52.832;10.680;2022-08-27T03:10:17;28.00;;;14.65;;
6979;SDS011;3530;52.832;10.680;2022-08-27T03:12:44;23.45;;;12.82;;
6979;SDS011;3530;52.832;10.680;2022-08-27T03:15:11;22.90;;;12.50;;
6979;SDS011;3530;52.832;10.680;2022-08-27T03:17:38;25.98;;;13.55;;
6979;SDS011;3530;52.832;10.680;2022-08-27T03:20:22;22.67;;;13.48;;
6979;SDS011;3530;52.832;10.680;2022-08-27T03:22:48;25.75;;;13.75;;
6979;SDS011;3530;52.832;10.680;2022-08-27T03:25:13;17.88;;;10.38;;
6979;SDS011;3530;52.832;10.680;2022-08-27T03:27:39;19.27;;;10.82;;
6979;SDS011;3530;52.832;10.680;2022-08-27T03:30:09;19.38;;;11.82;;
6979;SDS011;3530;52.832;10.680;2022-08-27T03:32:36;19.15;;;11.90;;
6979;SDS011;3530;52.832;10.680;2022-08-27T03:35:02;17.65;;;11.60;;
6979;SDS011;3530;52.832;10.680;2022-08-27T03:37:27;22.15;;;13.52;;
6979;SDS011;3530;52.832;10.680;2022-08-27T03:39:53;21.60;;;14.75;;
6979;SDS011;3530;52.832;10.680;2022-08-27T03:42:19;26.08;;;12.90;;
6979;SDS011;3530;52.832;10.680;2022-08-27T03:44:45;21.60;;;13.57;;
6979;SDS011;3530;52.832;10.680;2022-08-27T03:47:11;28.85;;;15.00;;
6979;SDS011;3530;52.832;10.680;2022-08-27T03:49:36;19.40;;;14.02;;
6979;SDS011;3530;52.832;10.680;2022-08-27T03:52:01;12.85;;;10.13;;
6979;SDS011;3530;52.832;10.680;2022-08-27T03:54:27;23.02;;;14.88;;
6979;SDS011;3530;52.832;10.680;2022-08-27T03:56:52;16.45;;;12.20;;
6979;SDS011;3530;52.832;10.680;2022-08-27T03:59:18;24.98;;;13.45;;
6979;SDS011;3530;52.832;10.680;2022-08-27T04:01:43;21.73;;;13.05;;
6979;SDS011;3530;52.832;10.680;2022-08-27T04:04:09;20.38;;;12.95;;
6979;SDS011;3530;52.832;10.680;2022-08-27T04:06:34;22.08;;;12.82;;
6979;SDS011;3530;52.832;10.680;2022-08-27T04:09:00;20.75;;;11.75;;
6979;SDS011;3530;52.832;10.680;2022-08-27T04:11:26;20.42;;;12.02;;
6979;SDS011;3530;52.832;10.680;2022-08-27T04:13:53;22.52;;;13.55;;
6979;SDS011;3530;52.832;10.680;2022-08-27T04:16:19;21.52;;;12.98;;
6979;SDS011;3530;52.832;10.680;2022-08-27T04:18:44;20.08;;;11.05;;
6979;SDS011;3530;52.832;10.680;2022-08-27T04:21:10;24.15;;;13.95;;
6979;SDS011;3530;52.832;10.680;2022-08-27T04:23:37;20.20;;;10.98;;
6979;SDS011;3530;52.832;10.680;2022-08-27T04:26:04;26.63;;;16.38;;
6979;SDS011;3530;52.832;10.680;2022-08-27T04:28:30;21.55;;;15.10;;
6979;SDS011;3530;52.832;10.680;2022-08-27T04:30:56;22.45;;;12.65;;
6979;SDS011;3530;52.832;10.680;2022-08-27T04:33:21;18.45;;;10.05;;
6979;SDS011;3530;52.832;10.680;2022-08-27T04:35:47;22.83;;;13.02;;
6979;SDS011;3530;52.832;10.680;2022-08-27T04:38:21;22.83;;;13.80;;
6979;SDS011;3530;52.832;10.680;2022-08-27T04:40:46;24.30;;;13.23;;
6979;SDS011;3530;52.832;10.680;2022-08-27T04:43:57;19.20;;;11.73;;
6979;SDS011;3530;52.832;10.680;2022-08-27T04:46:27;19.05;;;12.55;;
6979;SDS011;3530;52.832;10.680;2022-08-27T04:48:58;20.00;;;12.77;;
6979;SDS011;3530;52.832;10.680;2022-08-27T04:51:25;22.23;;;13.90;;
6979;SDS011;3530;52.832;10.680;2022-08-27T04:53:52;18.90;;;10.65;;
6979;SDS011;3530;52.832;10.680;2022-08-27T04:56:19;16.80;;;10.63;;
6979;SDS011;3530;52.832;10.680;2022-08-27T04:58:48;25.20;;;13.75;;
6979;SDS011;3530;52.832;10.680;2022-08-27T05:01:18;26.83;;;13.57;;
6979;SDS011;3530;52.832;10.680;2022-08-27T05:03:45;22.20;;;12.73;;
6979;SDS011;3530;52.832;10.680;2022-08-27T05:06:11;18.13;;;13.00;;
6979;SDS011;3530;52.832;10.680;2022-08-27T05:08:37;23.63;;;13.43;;
6979;SDS011;3530;52.832;10.680;2022-08-27T05:11:05;29.98;;;14.98;;
6979;SDS011;3530;52.832;10.680;2022-08-27T05:13:31;18.05;;;10.75;;
6979;SDS011;3530;52.832;10.680;2022-08-27T05:15:57;19.20;;;10.98;;
6979;SDS011;3530;52.832;10.680;2022-08-27T05:18:25;16.50;;;10.00;;
6979;SDS011;3530;52.832;10.680;2022-08-27T05:20:50;17.35;;;10.65;;
6979;SDS011;3530;52.832;10.680;2022-08-27T05:23:16;26.20;;;14.13;;
6979;SDS011;3530;52.832;10.680;2022-08-27T05:25:43;24.70;;;12.90;;
6979;SDS011;3530;52.832;10.680;2022-08-27T05:28:10;22.20;;;12.88;;
6979;SDS011;3530;52.832;10.680;2022-08-27T05:30:36;26.27;;;14.07;;
6979;SDS011;3530;52.832;10.680;2022-08-27T05:33:02;22.50;;;12.73;;
6979;SDS011;3530;52.832;10.680;2022-08-27T05:35:28;20.83;;;12.20;;
6979;SDS011;3530;52.832;10.680;2022-08-27T05:37:53;27.23;;;14.60;;
6979;SDS011;3530;52.832;10.680;2022-08-27T05:40:19;22.95;;;13.60;;
6979;SDS011;3530;52.832;10.680;2022-08-27T05:42:44;17.02;;;10.38;;
6979;SDS011;3530;52.832;10.680;2022-08-27T05:45:09;21.98;;;12.43;;
6979;SDS011;3530;52.832;10.680;2022-08-27T05:47:35;19.70;;;11.68;;
6979;SDS011;3530;52.832;10.680;2022-08-27T05:50:00;19.15;;;10.57;;
6979;SDS011;3530;52.832;10.680;2022-08-27T05:52:27;16.80;;;11.45;;
6979;SDS011;3530;52.832;10.680;2022-08-27T05:54:52;23.90;;;12.98;;
6979;SDS011;3530;52.832;10.680;2022-08-27T05:57:18;21.02;;;12.25;;
6979;SDS011;3530;52.832;10.680;2022-08-27T05:59:44;20.73;;;12.88;;
6979;SDS011;3530;52.832;10.680;2022-08-27T06:02:28;17.77;;;9.35;;
6979;SDS011;3530;52.832;10.680;2022-08-27T06:04:53;21.42;;;12.63;;
6979;SDS011;3530;52.832;10.680;2022-08-27T06:07:18;21.73;;;13.23;;
6979;SDS011;3530;52.832;10.680;2022-08-27T06:09:44;19.80;;;11.23;;
6979;SDS011;3530;52.832;10.680;2022-08-27T06:12:09;19.27;;;10.82;;
6979;SDS011;3530;52.832;10.680;2022-08-27T06:14:35;20.67;;;11.25;;
6979;SDS011;3530;52.832;10.680;2022-08-27T06:17:01;14.38;;;9.07;;
6979;SDS011;3530;52.832;10.680;2022-08-27T06:19:27;22.20;;;11.13;;
6979;SDS011;3530;52.832;10.680;2022-08-27T06:21:52;18.15;;;10.70;;
6979;SDS011;3530;52.832;10.680;2022-08-27T06:24:18;22.85;;;12.48;;
6979;SDS011;3530;52.832;10.680;2022-08-27T06:26:44;19.52;;;12.23;;
6979;SDS011;3530;52.832;10.680;2022-08-27T06:29:09;18.90;;;9.23;;
6979;SDS011;3530;52.832;10.680;2022-08-27T06:31:37;18.67;;;11.20;;
6979;SDS011;3530;52.832;10.680;2022-08-27T06:34:04;20.08;;;11.30;;
6979;SDS011;3530;52.832;10.680;2022-08-27T06:36:31;19.92;;;10.07;;
6979;SDS011;3530;52.832;10.680;2022-08-27T06:38:57;16.02;;;10.75;;
6979;SDS011;3530;52.832;10.680;2022-08-27T06:41:24;16.05;;;9.75;;
6979;SDS011;3530;52.832;10.680;2022-08-27T06:43:51;17.67;;;11.18;;
6979;SDS011;3530;52.832;10.680;2022-08-27T06:46:18;21.77;;;11.98;;
6979;SDS011;3530;52.832;10.680;2022-08-27T06:48:45;17.35;;;10.35;;
6979;SDS011;3530;52.832;10.680;2022-08-27T06:51:16;18.35;;;10.15;;
6979;SDS011;3530;52.832;10.680;2022-08-27T06:53:44;24.60;;;13.23;;
6979;SDS011;3530;52.832;10.680;2022-08-27T06:56:11;22.02;;;12.05;;
6979;SDS011;3530;52.832;10.680;2022-08-27T06:58:38;33.38;;;14.32;;
6979;SDS011;3530;52.832;10.680;2022-08-27T07:04:01;23.83;;;14.85;;
6979;SDS011;3530;52.832;10.680;2022-08-27T07:06:29;27.60;;;15.10;;
6979;SDS011;3530;52.832;10.680;2022-08-27T07:08:55;23.42;;;13.02;;
6979;SDS011;3530;52.832;10.680;2022-08-27T07:11:21;22.15;;;12.50;;
6979;SDS011;3530;52.832;10.680;2022-08-27T07:13:46;20.85;;;11.40;;
6979;SDS011;3530;52.832;10.680;2022-08-27T07:16:12;30.98;;;13.85;;
6979;SDS011;3530;52.832;10.680;2022-08-27T07:18:39;27.75;;;15.30;;
6979;SDS011;3530;52.832;10.680;2022-08-27T07:21:05;25.55;;;14.02;;
6979;SDS011;3530;52.832;10.680;2022-08-27T07:23:32;23.88;;;14.13;;
6979;SDS011;3530;52.832;10.680;2022-08-27T07:25:58;24.23;;;14.27;;
6979;SDS011;3530;52.832;10.680;2022-08-27T07:28:23;28.77;;;13.82;;
6979;SDS011;3530;52.832;10.680;2022-08-27T07:30:49;18.92;;;10.63;;
6979;SDS011;3530;52.832;10.680;2022-08-27T07:33:16;21.10;;;13.45;;
6979;SDS011;3530;52.832;10.680;2022-08-27T07:35:41;26.52;;;14.57;;
6979;SDS011;3530;52.832;10.680;2022-08-27T07:38:08;22.48;;;13.05;;
6979;SDS011;3530;52.832;10.680;2022-08-27T07:40:35;22.90;;;11.68;;
6979;SDS011;3530;52.832;10.680;2022-08-27T07:43:00;21.55;;;11.57;;
6979;SDS011;3530;52.832;10.680;2022-08-27T07:45:46;29.13;;;12.95;;
6979;SDS011;3530;52.832;10.680;2022-08-27T07:48:12;28.88;;;13.68;;
6979;SDS011;3530;52.832;10.680;2022-08-27T07:50:37;21.55;;;11.95;;
6979;SDS011;3530;52.832;10.680;2022-08-27T07:53:03;21.65;;;12.82;;
6979;SDS011;3530;52.832;10.680;2022-08-27T07:55:28;22.40;;;12.43;;
6979;SDS011;3530;52.832;10.680;2022-08-27T07:57:54;24.70;;;14.52;;
6979;SDS011;3530;52.832;10.680;2022-08-27T08:00:19;22.27;;;12.73;;
6979;SDS011;3530;52.832;10.680;2022-08-27T08:02:45;21.02;;;12.50;;
6979;SDS011;3530;52.832;10.680;2022-08-27T08:05:12;22.02;;;13.77;;
6979;SDS011;3530;52.832;10.680;2022-08-27T08:07:40;19.60;;;12.10;;
6979;SDS011;3530;52.832;10.680;2022-08-27T08:10:06;18.50;;;10.52;;
6979;SDS011;3530;52.832;10.680;2022-08-27T08:12:34;22.40;;;13.30;;
6979;SDS011;3530;52.832;10.680;2022-08-27T08:15:03;19.75;;;11.85;;
6979;SDS011;3530;52.832;10.680;2022-08-27T08:17:31;23.52;;;13.30;;
6979;SDS011;3530;52.832;10.680;2022-08-27T08:19:57;19.30;;;11.75;;
6979;SDS011;3530;52.832;10.680;2022-08-27T08:22:22;15.93;;;10.27;;
6979;SDS011;3530;52.832;10.680;2022-08-27T08:24:47;26.33;;;14.52;;
6979;SDS011;3530;52.832;10.680;2022-08-27T08:27:13;17.83;;;12.48;;
6979;SDS011;3530;52.832;10.680;2022-08-27T08:29:38;21.00;;;12.23;;
6979;SDS011;3530;52.832;10.680;2022-08-27T08:32:05;18.98;;;11.10;;
6979;SDS011;3530;52.832;10.680;2022-08-27T08:34:30;17.05;;;10.57;;
6979;SDS011;3530;52.832;10.680;2022-08-27T08:36:56;20.65;;;11.43;;
6979;SDS011;3530;52.832;10.680;2022-08-27T08:39:22;21.23;;;12.43;;
6979;SDS011;3530;52.832;10.680;2022-08-27T08:41:49;19.85;;;10.02;;
6979;SDS011;3530;52.832;10.680;2022-08-27T08:47:09;13.32;;;9.60;;
6979;SDS011;3530;52.832;10.680;2022-08-27T09:00:54;19.65;;;12.77;;
6979;SDS011;3530;52.832;10.680;2022-08-27T09:03:21;17.05;;;11.90;;
6979;SDS011;3530;52.832;10.680;2022-08-27T09:05:48;20.92;;;11.40;;
6979;SDS011;3530;52.832;10.680;2022-08-27T09:08:23;17.23;;;10.75;;
6979;SDS011;3530;52.832;10.680;2022-08-27T09:13:32;14.75;;;9.80;;
6979;SDS011;3530;52.832;10.680;2022-08-27T09:16:02;16.75;;;10.25;;
6979;SDS011;3530;52.832;10.680;2022-08-27T09:18:28;18.65;;;10.63;;
6979;SDS011;3530;52.832;10.680;2022-08-27T09:20:59;14.68;;;9.68;;
6979;SDS011;3530;52.832;10.680;2022-08-27T09:23:35;14.02;;;10.10;;
6979;SDS011;3530;52.832;10.680;2022-08-27T09:26:14;14.98;;;9.75;;
6979;SDS011;3530;52.832;10.680;2022-08-27T09:28:41;17.17;;;8.52;;
6979;SDS011;3530;52.832;10.680;2022-08-27T09:31:25;17.63;;;9.55;;
6979;SDS011;3530;52.832;10.680;2022-08-27T09:33:51;17.02;;;10.43;;
6979;SDS011;3530;52.832;10.680;2022-08-27T09:36:16;18.13;;;11.05;;
6979;SDS011;3530;52.832;10.680;2022-08-27T09:38:53;17.13;;;11.18;;
6979;SDS011;3530;52.832;10.680;2022-08-27T09:41:21;17.58;;;9.88;;
6979;SDS011;3530;52.832;10.680;2022-08-27T09:44:07;13.60;;;9.32;;
6979;SDS011;3530;52.832;10.680;2022-08-27T09:46:34;16.58;;;9.95;;
6979;SDS011;3530;52.832;10.680;2022-08-27T09:49:12;15.38;;;11.02;;
6979;SDS011;3530;52.832;10.680;2022-08-27T09:51:40;18.38;;;10.25;;
6979;SDS011;3530;52.832;10.680;2022-08-27T09:54:07;16.95;;;8.65;;
6979;SDS011;3530;52.832;10.680;2022-08-27T09:56:39;17.95;;;9.15;;
6979;SDS011;3530;52.832;10.680;2022-08-27T09:59:19;20.60;;;10.63;;
6979;SDS011;3530;52.832;10.680;2022-08-27T10:04:43;15.48;;;9.68;;
6979;SDS011;3530;52.832;10.680;2022-08-27T10:07:22;14.13;;;9.80;;
6979;SDS011;3530;52.832;10.680;2022-08-27T10:09:53;17.83;;;10.27;;
6979;SDS011;3530;52.832;10.680;2022-08-27T10:15:24;15.38;;;9.77;;
6979;SDS011;3530;52.832;10.680;2022-08-27T10:17:59;12.30;;;8.10;;
6979;SDS011;3530;52.832;10.680;2022-08-27T10:23:41;16.13;;;10.35;;
6979;SDS011;3530;52.832;10.680;2022-08-27T10:28:46;14.32;;;8.68;;
6979;SDS011;3530;52.832;10.680;2022-08-27T10:36:41;16.27;;;8.55;;
6979;SDS011;3530;52.832;10.680;2022-08-27T10:39:34;12.77;;;9.35;;
6979;SDS011;3530;52.832;10.680;2022-08-27T10:42:27;20.63;;;10.32;;
6979;SDS011;3530;52.832;10.680;2022-08-27T10:47:47;14.48;;;9.57;;
6979;SDS011;3530;52.832;10.680;2022-08-27T10:53:05;15.00;;;8.80;;
6979;SDS011;3530;52.832;10.680;2022-08-27T10:55:36;14.05;;;8.75;;
6979;SDS011;3530;52.832;10.680;2022-08-27T11:03:39;17.17;;;9.30;;
6979;SDS011;3530;52.832;10.680;2022-08-27T11:06:14;10.88;;;8.30;;
6979;SDS011;3530;52.832;10.680;2022-08-27T11:11:49;9.50;;;7.07;;
6979;SDS011;3530;52.832;10.680;2022-08-27T11:14:28;10.02;;;7.88;;
6979;SDS011;3530;52.832;10.680;2022-08-27T11:16:58;13.50;;;8.52;;
6979;SDS011;3530;52.832;10.680;2022-08-27T11:19:30;11.25;;;7.78;;
6979;SDS011;3530;52.832;10.680;2022-08-27T11:22:05;8.60;;;6.55;;
6979;SDS011;3530;52.832;10.680;2022-08-27T11:24:47;11.18;;;7.18;;
6979;SDS011;3530;52.832;10.680;2022-08-27T11:27:19;10.90;;;8.00;;
6979;SDS011;3530;52.832;10.680;2022-08-27T11:30:02;8.77;;;6.78;;
6979;SDS011;3530;52.832;10.680;2022-08-27T11:38:07;10.40;;;7.78;;
6979;SDS011;3530;52.832;10.680;2022-08-27T11:43:55;11.95;;;7.70;;
6979;SDS011;3530;52.832;10.680;2022-08-27T11:46:23;12.10;;;7.40;;
6979;SDS011;3530;52.832;10.680;2022-08-27T11:48:58;10.25;;;6.47;;
6979;SDS011;3530;52.832;10.680;2022-08-27T11:51:30;6.78;;;4.88;;
6979;SDS011;3530;52.832;10.680;2022-08-27T11:54:08;10.93;;;6.95;;
6979;SDS011;3530;52.832;10.680;2022-08-27T11:56:37;10.52;;;6.40;;
6979;SDS011;3530;52.832;10.680;2022-08-27T11:59:09;7.00;;;5.60;;
6979;SDS011;3530;52.832;10.680;2022-08-27T12:01:54;8.60;;;5.85;;
6979;SDS011;3530;52.832;10.680;2022-08-27T12:07:06;11.68;;;6.15;;
6979;SDS011;3530;52.832;10.680;2022-08-27T12:09:43;9.15;;;6.18;;
6979;SDS011;3530;52.832;10.680;2022-08-27T12:12:14;10.85;;;6.20;;
6979;SDS011;3530;52.832;10.680;2022-08-27T12:14:56;7.80;;;5.70;;
6979;SDS011;3530;52.832;10.680;2022-08-27T12:17:39;10.52;;;5.40;;
6979;SDS011;3530;52.832;10.680;2022-08-27T12:25:34;7.80;;;4.65;;
6979;SDS011;3530;52.832;10.680;2022-08-27T12:28:01;6.93;;;5.03;;
6979;SDS011;3530;52.832;10.680;2022-08-27T12:30:32;6.85;;;5.05;;
6979;SDS011;3530;52.832;10.680;2022-08-27T12:33:13;5.70;;;4.07;;
6979;SDS011;3530;52.832;10.680;2022-08-27T12:35:52;10.32;;;4.28;;
6979;SDS011;3530;52.832;10.680;2022-08-27T12:38:19;4.90;;;4.43;;
6979;SDS011;3530;52.832;10.680;2022-08-27T12:40:54;8.05;;;4.22;;
6979;SDS011;3530;52.832;10.680;2022-08-27T12:43:27;7.53;;;4.22;;
6979;SDS011;3530;52.832;10.680;2022-08-27T12:46:06;4.93;;;3.95;;
6979;SDS011;3530;52.832;10.680;2022-08-27T12:48:36;6.53;;;4.90;;
6979;SDS011;3530;52.832;10.680;2022-08-27T12:51:07;6.90;;;4.13;;
6979;SDS011;3530;52.832;10.680;2022-08-27T12:53:39;9.30;;;3.63;;
6979;SDS011;3530;52.832;10.680;2022-08-27T12:58:57;5.80;;;5.00;;
6979;SDS011;3530;52.832;10.680;2022-08-27T13:04:49;4.15;;;3.78;;
6979;SDS011;3530;52.832;10.680;2022-08-27T13:07:27;6.00;;;3.72;;
6979;SDS011;3530;52.832;10.680;2022-08-27T13:09:53;7.47;;;4.72;;
6979;SDS011;3530;52.832;10.680;2022-08-27T13:12:18;6.75;;;5.07;;
6979;SDS011;3530;52.832;10.680;2022-08-27T13:14:44;9.82;;;6.05;;
6979;SDS011;3530;52.832;10.680;2022-08-27T13:17:12;5.22;;;4.72;;
6979;SDS011;3530;52.832;10.680;2022-08-27T13:19:46;5.50;;;4.82;;
6979;SDS011;3530;52.832;10.680;2022-08-27T13:22:24;9.85;;;4.50;;
6979;SDS011;3530;52.832;10.680;2022-08-27T13:24:52;7.15;;;5.35;;
6979;SDS011;3530;52.832;10.680;2022-08-27T13:27:24;5.88;;;5.28;;
6979;SDS011;3530;52.832;10.680;2022-08-27T13:29:50;7.05;;;5.30;;
6979;SDS011;3530;52.832;10.680;2022-08-27T13:32:16;6.80;;;5.20;;
6979;SDS011;3530;52.832;10.680;2022-08-27T13:34:41;7.97;;;5.85;;
6979;SDS011;3530;52.832;10.680;2022-08-27T13:37:20;8.68;;;5.07;;
6979;SDS011;3530;52.832;10.680;2022-08-27T13:39:50;9.15;;;5.60;;
6979;SDS011;3530;52.832;10.680;2022-08-27T13:42:16;7.22;;;5.65;;
6979;SDS011;3530;52.832;10.680;2022-08-27T13:44:41;11.25;;;6.10;;
6979;SDS011;3530;52.832;10.680;2022-08-27T13:47:08;7.80;;;5.85;;
6979;SDS011;3530;52.832;10.680;2022-08-27T13:49:39;8.35;;;5.65;;
6979;SDS011;3530;52.832;10.680;2022-08-27T13:54:46;8.35;;;5.47;;
6979;SDS011;3530;52.832;10.680;2022-08-27T13:57:22;8.10;;;5.63;;
6979;SDS011;3530;52.832;10.680;2022-08-27T13:59:49;11.73;;;6.63;;
6979;SDS011;3530;52.832;10.680;2022-08-27T14:02:23;7.82;;;6.25;;
6979;SDS011;3530;52.832;10.680;2022-08-27T14:07:36;10.98;;;8.07;;
6979;SDS011;3530;52.832;10.680;2022-08-27T14:10:07;11.40;;;7.07;;
6979;SDS011;3530;52.832;10.680;2022-08-27T14:12:56;12.68;;;6.32;;
6979;SDS011;3530;52.832;10.680;2022-08-27T14:17:55;8.20;;;6.00;;
6979;SDS011;3530;52.832;10.680;2022-08-27T14:20:21;8.35;;;6.32;;
6979;SDS011;3530;52.832;10.680;2022-08-27T14:22:46;8.10;;;6.35;;
6979;SDS011;3530;52.832;10.680;2022-08-27T14:25:13;11.57;;;7.18;;
6979;SDS011;3530;52.832;10.680;2022-08-27T14:27:39;7.68;;;5.85;;
6979;SDS011;3530;52.832;10.680;2022-08-27T14:30:06;9.50;;;7.32;;
6979;SDS011;3530;52.832;10.680;2022-08-27T14:32:33;6.03;;;5.35;;
6979;SDS011;3530;52.832;10.680;2022-08-27T14:34:58;8.63;;;5.90;;
6979;SDS011;3530;52.832;10.680;2022-08-27T14:37:23;6.82;;;5.85;;
6979;SDS011;3530;52.832;10.680;2022-08-27T14:39:49;9.95;;;6.15;;
6979;SDS011;3530;52.832;10.680;2022-08-27T14:42:15;10.38;;;6.15;;
6979;SDS011;3530;52.832;10.680;2022-08-27T14:44:41;8.50;;;6.00;;
6979;SDS011;3530;52.832;10.680;2022-08-27T14:47:07;7.60;;;5.97;;
6979;SDS011;3530;52.832;10.680;2022-08-27T14:49:33;12.98;;;6.70;;
6979;SDS011;3530;52.832;10.680;2022-08-27T14:52:02;8.75;;;5.85;;
6979;SDS011;3530;52.832;10.680;2022-08-27T14:54:28;10.63;;;6.35;;
6979;SDS011;3530;52.832;10.680;2022-08-27T14:56:53;8.52;;;5.30;;
6979;SDS011;3530;52.832;10.680;2022-08-27T14:59:19;13.40;;;5.90;;
6979;SDS011;3530;52.832;10.680;2022-08-27T15:01:45;9.57;;;6.15;;
6979;SDS011;3530;52.832;10.680;2022-08-27T15:04:10;6.40;;;5.60;;
6979;SDS011;3530;52.832;10.680;2022-08-27T15:06:36;10.82;;;5.78;;
6979;SDS011;3530;52.832;10.680;2022-08-27T15:09:01;6.78;;;5.05;;
6979;SDS011;3530;52.832;10.680;2022-08-27T15:11:29;7.07;;;5.50;;
6979;SDS011;3530;52.832;10.680;2022-08-27T15:13:56;4.70;;;4.07;;
6979;SDS011;3530;52.832;10.680;2022-08-27T15:18:59;7.82;;;4.30;;
6979;SDS011;3530;52.832;10.680;2022-08-27T15:21:25;8.02;;;5.07;;
6979;SDS011;3530;52.832;10.680;2022-08-27T15:23:53;7.30;;;4.28;;
6979;SDS011;3530;52.832;10.680;2022-08-27T15:26:22;7.90;;;4.40;;
6979;SDS011;3530;52.832;10.680;2022-08-27T15:28:47;7.78;;;4.25;;
6979;SDS011;3530;52.832;10.680;2022-08-27T15:31:13;7.60;;;5.03;;
6979;SDS011;3530;52.832;10.680;2022-08-27T15:33:38;9.25;;;5.25;;
6979;SDS011;3530;52.832;10.680;2022-08-27T15:36:04;7.57;;;4.65;;
6979;SDS011;3530;52.832;10.680;2022-08-27T15:38:29;6.20;;;4.10;;
6979;SDS011;3530;52.832;10.680;2022-08-27T15:40:55;6.95;;;4.13;;
6979;SDS011;3530;52.832;10.680;2022-08-27T15:43:20;7.03;;;4.38;;
6979;SDS011;3530;52.832;10.680;2022-08-27T15:45:46;4.72;;;3.88;;
6979;SDS011;3530;52.832;10.680;2022-08-27T15:48:11;5.38;;;4.28;;
6979;SDS011;3530;52.832;10.680;2022-08-27T15:50:36;5.63;;;4.38;;
6979;SDS011;3530;52.832;10.680;2022-08-27T15:53:03;6.97;;;3.88;;
6979;SDS011;3530;52.832;10.680;2022-08-27T15:55:31;7.75;;;4.25;;
6979;SDS011;3530;52.832;10.680;2022-08-27T15:57:59;8.48;;;5.00;;
6979;SDS011;3530;52.832;10.680;2022-08-27T16:00:25;5.43;;;4.93;;
6979;SDS011;3530;52.832;10.680;2022-08-27T16:02:52;6.82;;;3.97;;
6979;SDS011;3530;52.832;10.680;2022-08-27T16:05:18;4.78;;;3.42;;
6979;SDS011;3530;52.832;10.680;2022-08-27T16:07:44;4.55;;;4.15;;
6979;SDS011;3530;52.832;10.680;2022-08-27T16:10:10;7.22;;;4.22;;
6979;SDS011;3530;52.832;10.680;2022-08-27T16:12:36;6.03;;;4.10;;
6979;SDS011;3530;52.832;10.680;2022-08-27T16:15:02;7.50;;;4.10;;
6979;SDS011;3530;52.832;10.680;2022-08-27T16:17:29;3.92;;;3.45;;
6979;SDS011;3530;52.832;10.680;2022-08-27T16:19:55;5.70;;;3.95;;